Time;durP1;ratioP1;P1;durP2;ratioP2;P2;SDS_P1;SDS_P2;PMS_P1;PMS_P2;Temp;Humidity;BMP_temperature;BMP_pressure;BME280_temperature;BME280_humidity;BME280_pressure;Samples;Min_cycle;Max_cycle;Signal;HPM_P1;HPM_P2
2024/01/27 00:00:26;;;;;;;9.93;1.77;;;7.40;99.90;;;;;;5068748;28;20433;-64
2024/01/27 00:03:03;;;;;;;5.57;1.80;;;7.40;99.90;;;;;;5068106;28;20254;-64
2024/01/27 00:05:31;;;;;;;19.43;1.80;;;7.40;99.90;;;;;;5068023;28;20243;-65
2024/01/27 00:07:58;;;;;;;8.20;1.60;;;7.40;99.90;;;;;;5067777;28;20219;-64
2024/01/27 00:10:24;;;;;;;5.10;1.90;;;7.40;99.90;;;;;;5068695;28;20614;-64
2024/01/27 00:12:53;;;;;;;4.90;1.67;;;7.40;99.90;;;;;;5063888;28;20265;-64
2024/01/27 00:15:20;;;;;;;5.70;2.20;;;7.40;99.90;;;;;;5065432;28;20228;-64
2024/01/27 00:17:47;;;;;;;5.17;1.87;;;7.40;99.90;;;;;;5067106;28;20284;-64
2024/01/27 00:20:14;;;;;;;5.37;1.60;;;7.40;99.90;;;;;;5068645;28;20669;-64
2024/01/27 00:22:41;;;;;;;5.73;1.97;;;7.40;99.90;;;;;;5064246;28;20291;-64
2024/01/27 00:25:08;;;;;;;5.87;1.80;;;7.40;99.90;;;;;;5069782;28;20716;-64
2024/01/27 00:27:36;;;;;;;6.93;1.70;;;7.40;99.90;;;;;;5066803;28;20651;-64
2024/01/27 00:30:05;;;;;;;4.83;2.13;;;7.40;99.90;;;;;;5065553;28;20324;-64
2024/01/27 00:32:33;;;;;;;3.90;1.40;;;7.40;99.90;;;;;;5069402;28;20197;-64
2024/01/27 00:35:00;;;;;;;4.77;1.50;;;7.40;99.90;;;;;;5075843;28;20255;-64
2024/01/27 00:37:27;;;;;;;4.23;1.37;;;7.40;99.90;;;;;;5063093;28;20200;-64
2024/01/27 00:39:55;;;;;;;5.70;1.83;;;7.40;99.90;;;;;;5075161;28;20246;-65
2024/01/27 00:42:23;;;;;;;5.33;2.00;;;7.30;99.90;;;;;;5078675;28;20632;-64
2024/01/27 00:44:51;;;;;;;7.80;1.47;;;7.30;99.90;;;;;;5067820;28;20592;-65
2024/01/27 00:47:19;;;;;;;5.93;1.37;;;7.30;99.90;;;;;;5080205;28;20196;-64
2024/01/27 00:49:46;;;;;;;6.63;1.40;;;7.30;99.90;;;;;;5078630;28;20239;-64
2024/01/27 00:52:13;;;;;;;3.10;1.00;;;7.30;99.90;;;;;;5080178;28;20367;-65
2024/01/27 00:54:40;;;;;;;4.67;1.40;;;7.30;99.90;;;;;;5085337;28;20195;-65
2024/01/27 00:57:07;;;;;;;4.33;1.40;;;7.30;99.90;;;;;;5076771;28;20314;-64
2024/01/27 00:59:34;;;;;;;6.27;1.47;;;7.20;99.90;;;;;;5084486;28;20204;-64
2024/01/27 01:02:01;;;;;;;3.43;1.17;;;7.30;99.90;;;;;;5079495;28;20207;-64
2024/01/27 01:04:30;;;;;;;3.77;1.00;;;7.30;99.90;;;;;;5078299;28;20201;-64
2024/01/27 01:06:57;;;;;;;2.17;1.00;;;7.30;99.90;;;;;;5077327;28;20213;-64
2024/01/27 01:09:24;;;;;;;2.03;1.30;;;7.20;99.90;;;;;;5078382;28;20217;-65
2024/01/27 01:11:51;;;;;;;3.20;1.03;;;7.20;99.90;;;;;;5069758;28;20213;-66
2024/01/27 01:14:17;;;;;;;6.13;1.63;;;7.30;99.90;;;;;;5070465;28;20667;-65
2024/01/27 01:16:44;;;;;;;3.63;1.20;;;7.20;99.90;;;;;;5070837;28;20196;-65
2024/01/27 01:19:11;;;;;;;5.20;1.30;;;7.20;99.90;;;;;;5071781;28;20213;-65
2024/01/27 01:21:39;;;;;;;6.10;1.40;;;7.20;99.90;;;;;;5071259;28;20205;-65
2024/01/27 01:24:07;;;;;;;2.00;1.30;;;7.20;99.90;;;;;;5071229;28;20266;-65
2024/01/27 01:29:38;;;;;;;2.73;0.93;;;7.20;99.90;;;;;;5071573;28;20225;-65
2024/01/27 01:32:06;;;;;;;3.60;1.00;;;7.20;99.90;;;;;;5071122;28;20494;-66
2024/01/27 01:34:34;;;;;;;3.63;0.90;;;7.20;99.90;;;;;;5070830;28;20196;-66
2024/01/27 01:37:02;;;;;;;3.93;1.20;;;7.20;99.90;;;;;;5068853;28;20198;-65
2024/01/27 01:39:29;;;;;;;2.40;1.10;;;7.20;99.90;;;;;;5070885;28;20747;-65
2024/01/27 01:41:56;;;;;;;1.90;1.00;;;7.10;99.90;;;;;;5100898;28;20209;-66
2024/01/27 01:44:25;;;;;;;5.40;1.47;;;7.10;99.90;;;;;;5070381;28;20571;-65
2024/01/27 01:46:51;;;;;;;2.27;1.13;;;7.20;99.90;;;;;;5069842;28;20495;-65
2024/01/27 01:49:19;;;;;;;2.37;1.07;;;7.20;99.90;;;;;;5070068;28;20220;-66
2024/01/27 01:51:46;;;;;;;1.33;0.90;;;7.20;99.90;;;;;;5070175;28;20189;-65
2024/01/27 01:54:14;;;;;;;2.33;0.90;;;7.10;99.90;;;;;;5065359;28;20205;-65
2024/01/27 01:56:42;;;;;;;3.40;1.20;;;7.10;99.90;;;;;;5067563;28;20219;-65
2024/01/27 01:59:09;;;;;;;3.07;1.30;;;7.10;99.90;;;;;;5071347;28;20204;-64
2024/01/27 02:01:36;;;;;;;1.17;0.80;;;7.10;99.90;;;;;;5070241;28;20193;-65
2024/01/27 02:04:05;;;;;;;4.20;1.03;;;7.00;99.90;;;;;;5069955;28;20289;-65
2024/01/27 02:06:32;;;;;;;2.10;1.00;;;7.10;99.90;;;;;;5069145;28;20191;-65
2024/01/27 02:08:59;;;;;;;2.93;0.90;;;7.10;99.90;;;;;;5070448;28;20201;-65
2024/01/27 02:11:28;;;;;;;2.93;0.90;;;7.10;99.90;;;;;;5067014;28;20201;-65
2024/01/27 02:13:55;;;;;;;1.73;0.90;;;7.10;99.90;;;;;;5070581;28;20300;-65
2024/01/27 02:16:22;;;;;;;2.13;0.90;;;7.10;99.90;;;;;;5100589;28;20201;-65
2024/01/27 02:18:49;;;;;;;2.70;0.70;;;7.10;99.90;;;;;;5069132;28;20193;-65
2024/01/27 02:21:16;;;;;;;1.57;0.77;;;7.10;99.90;;;;;;5068074;28;20205;-66
2024/01/27 02:23:43;;;;;;;1.73;0.90;;;7.10;99.90;;;;;;5068146;28;20654;-63
2024/01/27 02:26:11;;;;;;;2.00;0.70;;;7.10;99.90;;;;;;5099297;28;20292;-66
2024/01/27 02:28:38;;;;;;;0.83;0.67;;;7.10;99.90;;;;;;5068707;28;20229;-66
2024/01/27 02:31:05;;;;;;;1.93;0.80;;;7.10;99.90;;;;;;5070093;28;20228;-65
2024/01/27 02:33:32;;;;;;;2.40;0.80;;;7.10;99.90;;;;;;5070041;28;20209;-65
2024/01/27 02:36:00;;;;;;;1.43;1.00;;;7.00;99.90;;;;;;5067281;28;20544;-66
2024/01/27 02:38:26;;;;;;;2.00;0.90;;;7.00;99.90;;;;;;5069723;28;20204;-65
2024/01/27 02:40:54;;;;;;;1.70;0.80;;;7.00;99.90;;;;;;5067086;28;20291;-65
2024/01/27 02:43:22;;;;;;;0.90;0.60;;;7.00;99.90;;;;;;5069053;28;20192;-64
2024/01/27 02:45:49;;;;;;;1.17;0.90;;;6.90;99.90;;;;;;5069165;28;21154;-64
2024/01/27 02:48:16;;;;;;;2.47;1.00;;;6.90;99.90;;;;;;5069616;28;20201;-64
2024/01/27 02:50:43;;;;;;;1.17;0.70;;;6.90;99.90;;;;;;5069650;28;20200;-64
2024/01/27 02:53:10;;;;;;;1.23;0.80;;;6.90;99.90;;;;;;5100541;28;20217;-64
2024/01/27 02:55:37;;;;;;;1.67;0.80;;;6.80;99.90;;;;;;5068013;28;20189;-65
2024/01/27 02:58:04;;;;;;;0.70;0.70;;;6.80;99.90;;;;;;5068256;28;20216;-64
2024/01/27 03:00:33;;;;;;;0.40;0.40;;;6.80;99.90;;;;;;5069186;28;20201;-64
2024/01/27 03:03:00;;;;;;;0.97;0.70;;;6.70;99.90;;;;;;5069251;28;20201;-64
2024/01/27 03:05:27;;;;;;;1.13;0.60;;;6.70;99.90;;;;;;5066936;28;20211;-65
2024/01/27 03:07:54;;;;;;;0.67;0.60;;;6.70;99.90;;;;;;5068862;28;20193;-64
2024/01/27 03:10:21;;;;;;;0.57;0.50;;;6.90;99.90;;;;;;5069458;28;20837;-65
2024/01/27 03:12:47;;;;;;;1.70;0.87;;;6.70;99.90;;;;;;5064230;28;20197;-65
2024/01/27 03:15:15;;;;;;;0.83;0.70;;;6.70;99.90;;;;;;5065302;28;20227;-65
2024/01/27 03:17:43;;;;;;;0.50;0.50;;;6.70;99.90;;;;;;5068447;28;20498;-65
2024/01/27 03:20:11;;;;;;;1.03;0.50;;;6.70;99.90;;;;;;5069389;28;20354;-65
2024/01/27 03:22:40;;;;;;;0.73;0.60;;;6.70;99.90;;;;;;5067948;28;20663;-64
2024/01/27 03:25:07;;;;;;;1.47;0.57;;;6.70;99.90;;;;;;5066546;28;20621;-65
2024/01/27 03:27:34;;;;;;;0.73;0.60;;;6.70;99.90;;;;;;5066362;28;20204;-65
2024/01/27 03:30:03;;;;;;;1.43;0.80;;;6.70;99.90;;;;;;5069666;28;20732;-64
2024/01/27 03:32:31;;;;;;;0.87;0.50;;;6.70;99.90;;;;;;5069439;28;20201;-64
2024/01/27 03:35:02;;;;;;;1.60;0.63;;;6.70;99.90;;;;;;5068128;28;20234;-65
2024/01/27 03:37:29;;;;;;;0.57;0.50;;;7.20;99.90;;;;;;5062096;28;20216;-65
2024/01/27 03:39:56;;;;;;;0.60;0.60;;;6.70;99.90;;;;;;5069649;28;20239;-65
2024/01/27 03:42:25;;;;;;;1.27;0.70;;;6.70;99.90;;;;;;5099042;28;20303;-65
2024/01/27 03:44:52;;;;;;;0.57;0.57;;;6.70;99.90;;;;;;5069967;28;20189;-65
2024/01/27 03:47:19;;;;;;;1.17;0.70;;;6.70;99.90;;;;;;5066599;28;20294;-65
2024/01/27 03:49:46;;;;;;;0.97;0.77;;;6.70;99.90;;;;;;5069742;28;20228;-65
2024/01/27 03:52:14;;;;;;;1.67;0.70;;;6.70;99.90;;;;;;5064478;28;20557;-64
2024/01/27 03:54:41;;;;;;;1.90;0.80;;;6.70;99.90;;;;;;5069353;28;20229;-64
2024/01/27 03:57:09;;;;;;;0.93;0.70;;;6.70;99.90;;;;;;5066330;28;20726;-64
2024/01/27 03:59:36;;;;;;;2.40;0.70;;;6.70;99.90;;;;;;5069162;28;20579;-65
2024/01/27 04:02:04;;;;;;;1.10;0.70;;;6.70;99.90;;;;;;5068263;28;20576;-64
2024/01/27 04:04:31;;;;;;;0.77;0.50;;;6.70;99.90;;;;;;5069104;28;20189;-64
2024/01/27 04:06:58;;;;;;;0.90;0.60;;;6.70;99.90;;;;;;5067981;28;20269;-64
2024/01/27 04:09:26;;;;;;;1.10;0.83;;;6.70;99.90;;;;;;5066932;28;20205;-64
2024/01/27 04:11:53;;;;;;;0.80;0.67;;;6.70;99.90;;;;;;5068456;28;20276;-64
2024/01/27 04:14:20;;;;;;;1.10;0.60;;;6.70;99.90;;;;;;5073024;28;20286;-64
2024/01/27 04:16:47;;;;;;;0.67;0.67;;;6.60;99.90;;;;;;5071596;28;20235;-65
2024/01/27 04:19:14;;;;;;;0.47;0.47;;;6.60;99.90;;;;;;5073174;28;20769;-64
2024/01/27 04:21:42;;;;;;;0.60;0.60;;;6.60;99.90;;;;;;5072181;28;20247;-64
2024/01/27 04:24:09;;;;;;;0.67;0.67;;;6.60;99.90;;;;;;5072713;28;20277;-64
2024/01/27 04:26:38;;;;;;;0.93;0.50;;;7.30;99.90;;;;;;5068718;28;20258;-64
2024/01/27 04:29:05;;;;;;;0.60;0.60;;;6.60;99.90;;;;;;5071773;28;20251;-65
2024/01/27 04:31:32;;;;;;;0.50;0.50;;;6.60;99.90;;;;;;5070872;28;20201;-65
2024/01/27 04:33:59;;;;;;;0.50;0.50;;;6.70;99.90;;;;;;5072706;28;20702;-65
2024/01/27 04:36:27;;;;;;;1.87;0.50;;;6.70;99.90;;;;;;5068019;28;20190;-65
2024/01/27 04:38:54;;;;;;;1.10;0.40;;;6.60;99.90;;;;;;5067526;28;20212;-65
2024/01/27 04:41:21;;;;;;;1.87;0.50;;;6.60;99.90;;;;;;5069648;28;20201;-65
2024/01/27 04:43:50;;;;;;;0.40;0.40;;;6.60;99.90;;;;;;5105068;28;20204;-65
2024/01/27 04:46:17;;;;;;;0.40;0.40;;;6.70;99.90;;;;;;5071165;28;20189;-65
2024/01/27 04:48:44;;;;;;;0.40;0.40;;;6.70;99.90;;;;;;5071725;28;20743;-65
2024/01/27 04:51:11;;;;;;;0.83;0.50;;;6.70;99.90;;;;;;5072059;28;20307;-65
2024/01/27 04:53:38;;;;;;;0.67;0.57;;;6.70;99.90;;;;;;5070779;28;20209;-65
2024/01/27 04:56:07;;;;;;;0.30;0.30;;;6.80;99.90;;;;;;5067862;28;20200;-65
2024/01/27 04:58:34;;;;;;;0.60;0.50;;;6.70;99.90;;;;;;5071343;28;20621;-65
2024/01/27 05:01:03;;;;;;;0.40;0.40;;;6.80;99.90;;;;;;5070658;28;20228;-65
2024/01/27 05:03:31;;;;;;;0.50;0.50;;;6.80;99.90;;;;;;5081534;28;20190;-65
2024/01/27 05:05:58;;;;;;;0.40;0.40;;;6.80;99.90;;;;;;5072124;28;20247;-65
2024/01/27 05:08:25;;;;;;;0.90;0.40;;;6.80;99.90;;;;;;5070357;28;20208;-66
2024/01/27 05:10:52;;;;;;;0.30;0.30;;;6.80;99.90;;;;;;5070191;28;20229;-65
2024/01/27 05:13:19;;;;;;;0.57;0.57;;;6.80;99.90;;;;;;5059171;28;20219;-65
2024/01/27 05:15:46;;;;;;;0.30;0.30;;;6.70;99.90;;;;;;5069956;28;20265;-65
2024/01/27 05:18:15;;;;;;;0.40;0.40;;;6.80;99.90;;;;;;5070982;28;20254;-66
2024/01/27 05:20:42;;;;;;;0.30;0.30;;;6.80;99.90;;;;;;5068964;28;20208;-65
2024/01/27 05:23:09;;;;;;;0.40;0.40;;;6.80;99.90;;;;;;5071685;28;20254;-65
2024/01/27 05:25:36;;;;;;;0.30;0.30;;;6.70;99.90;;;;;;5071124;28;20217;-65
2024/01/27 05:28:03;;;;;;;0.30;0.30;;;6.70;99.90;;;;;;5069455;28;20192;-65
2024/01/27 05:30:30;;;;;;;0.30;0.30;;;6.60;99.90;;;;;;5070653;28;20300;-65
2024/01/27 05:32:57;;;;;;;0.60;0.23;;;6.70;99.90;;;;;;5070961;28;20267;-65
2024/01/27 05:35:26;;;;;;;0.37;0.33;;;6.70;99.90;;;;;;5070024;28;20317;-65
2024/01/27 05:37:53;;;;;;;1.30;0.30;;;6.70;99.90;;;;;;5069503;28;20196;-65
2024/01/27 05:40:20;;;;;;;0.63;0.20;;;6.70;99.90;;;;;;5070676;28;20197;-65
2024/01/27 05:42:49;;;;;;;0.20;0.20;;;6.70;99.90;;;;;;5068945;28;20199;-65
2024/01/27 05:45:16;;;;;;;0.30;0.30;;;6.70;99.90;;;;;;5071494;28;20194;-65
2024/01/27 05:47:43;;;;;;;0.30;0.30;;;6.70;99.90;;;;;;5069025;28;20197;-65
2024/01/27 05:50:11;;;;;;;0.30;0.30;;;6.70;99.90;;;;;;5072119;28;20217;-65
2024/01/27 05:52:39;;;;;;;0.27;0.27;;;6.60;99.90;;;;;;5099020;28;20255;-65
2024/01/27 05:55:08;;;;;;;0.40;0.40;;;6.60;99.90;;;;;;5071506;28;20302;-66
2024/01/27 05:57:35;;;;;;;0.30;0.30;;;6.60;99.90;;;;;;5067451;28;20919;-64
2024/01/27 06:00:02;;;;;;;0.30;0.30;;;6.60;99.90;;;;;;5070445;28;20684;-66
2024/01/27 06:02:31;;;;;;;0.40;0.40;;;6.60;99.90;;;;;;5070215;28;20212;-65
2024/01/27 06:04:58;;;;;;;0.40;0.40;;;6.60;99.90;;;;;;5071054;28;20201;-65
2024/01/27 06:07:25;;;;;;;0.30;0.30;;;6.60;99.90;;;;;;5068839;28;20225;-65
2024/01/27 06:09:54;;;;;;;0.40;0.40;;;6.60;99.90;;;;;;5069828;28;20216;-65
2024/01/27 06:12:21;;;;;;;0.20;0.20;;;6.60;99.90;;;;;;5067922;28;20596;-64
2024/01/27 06:14:48;;;;;;;0.30;0.30;;;6.60;99.90;;;;;;5066938;28;20197;-65
2024/01/27 06:17:16;;;;;;;0.40;0.40;;;6.60;99.90;;;;;;5084062;28;20296;-65
2024/01/27 06:19:43;;;;;;;0.30;0.30;;;6.60;99.90;;;;;;5069253;28;20209;-65
2024/01/27 06:22:12;;;;;;;0.33;0.33;;;6.60;99.90;;;;;;5069509;28;20288;-65
2024/01/27 06:24:43;;;;;;;0.27;0.27;;;6.60;99.90;;;;;;5071066;28;20189;-65
2024/01/27 06:27:12;;;;;;;0.30;0.30;;;6.60;99.90;;;;;;5066759;28;20193;-65
2024/01/27 06:29:40;;;;;;;0.50;0.50;;;6.60;99.90;;;;;;5069077;28;20407;-64
2024/01/27 06:32:07;;;;;;;0.50;0.50;;;6.60;99.90;;;;;;5069023;28;20189;-65
2024/01/27 06:34:34;;;;;;;0.60;0.60;;;6.60;99.90;;;;;;5055070;28;20208;-65
2024/01/27 06:37:01;;;;;;;0.70;0.70;;;6.60;99.90;;;;;;5065470;28;20201;-65
2024/01/27 06:39:29;;;;;;;1.17;0.77;;;6.60;99.90;;;;;;5070005;28;20671;-65
2024/01/27 06:41:56;;;;;;;0.93;0.40;;;6.60;99.90;;;;;;5067160;28;20204;-65
2024/01/27 06:44:24;;;;;;;0.53;0.53;;;6.60;99.90;;;;;;5069492;28;20623;-65
2024/01/27 06:46:51;;;;;;;0.83;0.33;;;6.60;99.90;;;;;;5069413;28;20224;-65
2024/01/27 06:49:19;;;;;;;1.33;0.60;;;6.60;99.90;;;;;;5068447;28;20703;-66
2024/01/27 06:51:46;;;;;;;0.63;0.63;;;6.60;99.90;;;;;;5067331;28;20614;-65
2024/01/27 06:54:13;;;;;;;2.40;0.80;;;6.60;99.90;;;;;;5067632;28;20292;-66
2024/01/27 06:56:40;;;;;;;1.33;0.80;;;6.60;99.90;;;;;;5067489;28;20275;-65
2024/01/27 06:59:07;;;;;;;1.13;0.70;;;6.60;99.90;;;;;;5069213;28;20604;-65
2024/01/27 07:01:36;;;;;;;0.50;0.50;;;6.50;99.90;;;;;;5067795;28;20205;-65
2024/01/27 07:04:03;;;;;;;0.50;0.50;;;6.50;99.90;;;;;;5073832;28;20219;-65
2024/01/27 07:06:30;;;;;;;1.00;0.80;;;6.50;99.90;;;;;;5067584;28;20575;-65
2024/01/27 07:08:57;;;;;;;0.93;0.60;;;6.50;99.90;;;;;;5068154;28;20288;-65
2024/01/27 07:11:24;;;;;;;0.50;0.50;;;6.50;99.90;;;;;;5066325;28;20307;-65
2024/01/27 07:13:51;;;;;;;0.60;0.60;;;6.50;99.90;;;;;;5069483;28;20196;-65
2024/01/27 07:16:18;;;;;;;0.60;0.50;;;6.50;99.90;;;;;;5068779;28;20252;-65
2024/01/27 07:18:46;;;;;;;0.40;0.40;;;6.50;99.90;;;;;;5070563;28;20197;-65
2024/01/27 07:21:16;;;;;;;2.20;0.67;;;6.50;99.90;;;;;;5068487;28;20199;-64
2024/01/27 07:23:43;;;;;;;0.53;0.53;;;6.50;99.90;;;;;;5070546;28;20737;-64
2024/01/27 07:26:11;;;;;;;1.33;0.43;;;6.50;99.90;;;;;;5064816;28;20300;-64
2024/01/27 07:28:38;;;;;;;0.50;0.50;;;6.50;99.90;;;;;;5067905;28;20587;-65
2024/01/27 07:31:06;;;;;;;0.50;0.47;;;6.40;99.90;;;;;;5069272;28;20239;-65
2024/01/27 07:33:33;;;;;;;0.57;0.57;;;6.40;99.90;;;;;;5068853;28;20461;-64
2024/01/27 07:36:01;;;;;;;0.70;0.70;;;6.50;99.90;;;;;;5068809;28;20223;-64
2024/01/27 07:38:28;;;;;;;0.40;0.40;;;6.50;99.90;;;;;;5067390;28;20298;-65
2024/01/27 07:40:55;;;;;;;0.40;0.40;;;6.50;99.90;;;;;;5068316;28;20197;-65
2024/01/27 07:43:23;;;;;;;0.33;0.33;;;6.50;99.90;;;;;;5068362;28;20208;-64
2024/01/27 07:45:52;;;;;;;0.40;0.40;;;6.50;99.90;;;;;;5061180;28;20189;-65
2024/01/27 07:48:19;;;;;;;0.40;0.40;;;6.50;99.90;;;;;;5072611;28;20247;-65
2024/01/27 07:50:48;;;;;;;0.40;0.40;;;6.50;99.90;;;;;;5073132;28;20246;-64
2024/01/27 07:53:17;;;;;;;0.37;0.37;;;6.50;99.90;;;;;;5072656;28;20231;-65
2024/01/27 07:55:44;;;;;;;0.30;0.30;;;6.50;99.90;;;;;;5063208;28;20257;-64
2024/01/27 07:58:11;;;;;;;0.73;0.47;;;6.50;99.90;;;;;;5070718;28;20223;-65
2024/01/27 08:03:14;;;;;;;0.50;0.47;;;6.60;99.90;;;;;;5054911;28;20246;-67
2024/01/27 08:05:41;;;;;;;1.77;0.50;;;6.60;99.90;;;;;;5064708;28;20197;-67
2024/01/27 08:08:08;;;;;;;0.63;0.60;;;6.60;99.90;;;;;;5070261;28;20311;-68
2024/01/27 08:10:37;;;;;;;0.83;0.73;;;6.60;99.90;;;;;;5072278;28;20252;-67
2024/01/27 08:13:05;;;;;;;0.50;0.50;;;6.60;99.90;;;;;;5069416;28;20197;-68
2024/01/27 08:15:32;;;;;;;0.50;0.50;;;6.60;99.90;;;;;;5072099;28;20219;-68
2024/01/27 08:17:59;;;;;;;0.80;0.80;;;6.60;99.90;;;;;;5070476;28;20596;-68
2024/01/27 08:20:26;;;;;;;0.87;0.83;;;6.60;99.90;;;;;;5071847;28;20212;-68
2024/01/27 08:22:53;;;;;;;0.53;0.53;;;6.60;99.90;;;;;;5071043;28;20281;-68
2024/01/27 08:25:20;;;;;;;0.83;0.70;;;6.60;99.90;;;;;;5074671;28;20189;-68
2024/01/27 08:27:48;;;;;;;0.57;0.57;;;6.50;99.90;;;;;;5064730;28;20193;-67
2024/01/27 08:30:16;;;;;;;0.60;0.60;;;6.50;99.90;;;;;;5070351;28;20286;-68
2024/01/27 08:32:43;;;;;;;0.70;0.70;;;6.50;99.90;;;;;;5070591;28;20204;-68
2024/01/27 08:35:10;;;;;;;1.77;0.60;;;6.50;99.90;;;;;;5071993;28;20311;-68
2024/01/27 08:37:38;;;;;;;0.87;0.60;;;6.50;99.90;;;;;;5070196;28;20204;-68
2024/01/27 08:40:07;;;;;;;0.60;0.60;;;6.50;99.90;;;;;;5070298;28;20201;-68
2024/01/27 08:42:34;;;;;;;0.77;0.70;;;6.50;99.90;;;;;;5068208;28;20197;-68
2024/01/27 08:45:04;;;;;;;0.53;0.53;;;6.50;99.90;;;;;;5072076;28;20605;-68
2024/01/27 08:47:31;;;;;;;0.60;0.50;;;6.50;99.90;;;;;;5071088;28;20200;-68
2024/01/27 08:49:58;;;;;;;0.60;0.50;;;6.50;99.90;;;;;;5072044;28;20250;-68
2024/01/27 08:52:25;;;;;;;0.60;0.60;;;6.50;99.90;;;;;;5069860;28;20309;-68
2024/01/27 08:54:52;;;;;;;0.50;0.50;;;6.60;99.90;;;;;;5072133;28;20209;-68
2024/01/27 08:57:19;;;;;;;0.30;0.30;;;6.60;99.90;;;;;;5068027;28;20196;-68
2024/01/27 08:59:46;;;;;;;0.40;0.40;;;6.60;99.90;;;;;;5068855;28;20201;-68
2024/01/27 09:02:15;;;;;;;0.60;0.60;;;6.60;99.90;;;;;;5067776;28;20276;-67
2024/01/27 09:04:42;;;;;;;0.67;0.67;;;6.60;99.90;;;;;;5077708;28;20208;-68
2024/01/27 09:07:09;;;;;;;0.60;0.60;;;6.60;99.90;;;;;;5067045;28;20231;-68
2024/01/27 09:09:38;;;;;;;0.60;0.60;;;6.50;99.90;;;;;;5071507;28;20194;-68
2024/01/27 09:12:05;;;;;;;0.60;0.60;;;6.50;99.90;;;;;;5068730;28;20218;-68
2024/01/27 09:14:33;;;;;;;0.60;0.50;;;6.50;99.90;;;;;;5065921;28;20201;-67
2024/01/27 09:17:00;;;;;;;0.50;0.50;;;6.40;99.90;;;;;;5068335;28;20219;-67
2024/01/27 09:19:29;;;;;;;1.07;0.60;;;6.40;99.90;;;;;;5047306;28;20251;-68
2024/01/27 09:21:57;;;;;;;0.40;0.40;;;6.40;99.90;;;;;;5064110;28;20281;-68
2024/01/27 09:24:24;;;;;;;0.50;0.50;;;6.40;99.90;;;;;;5062010;28;20217;-68
2024/01/27 09:26:51;;;;;;;0.57;0.57;;;6.40;99.90;;;;;;5062602;28;20198;-69
2024/01/27 09:29:19;;;;;;;0.50;0.50;;;6.40;99.90;;;;;;5063167;28;20199;-68
2024/01/27 09:31:46;;;;;;;0.50;0.50;;;6.40;99.90;;;;;;5068462;28;20205;-68
2024/01/27 09:34:13;;;;;;;0.60;0.60;;;6.40;99.90;;;;;;5065062;28;20358;-68
2024/01/27 09:36:42;;;;;;;0.43;0.43;;;6.50;99.90;;;;;;5068693;28;20783;-68
2024/01/27 09:39:09;;;;;;;0.70;0.70;;;6.40;99.90;;;;;;5066637;28;20280;-68
2024/01/27 09:41:36;;;;;;;0.70;0.70;;;6.40;99.90;;;;;;5065133;28;20753;-67
2024/01/27 09:44:05;;;;;;;0.77;0.77;;;6.40;99.90;;;;;;5060728;28;20204;-67
2024/01/27 09:46:32;;;;;;;0.87;0.70;;;6.40;99.90;;;;;;5066363;28;20193;-68
2024/01/27 09:49:00;;;;;;;1.67;1.00;;;6.40;99.90;;;;;;5065953;28;20312;-68
2024/01/27 09:51:27;;;;;;;1.77;0.90;;;6.40;99.90;;;;;;5068760;28;20254;-68
2024/01/27 09:53:56;;;;;;;0.97;0.90;;;6.40;99.90;;;;;;5065922;28;20196;-68
2024/01/27 09:56:24;;;;;;;0.97;0.90;;;6.40;99.90;;;;;;5064075;28;20862;-68
2024/01/27 09:58:55;;;;;;;2.40;1.33;;;6.50;99.90;;;;;;5066353;28;20198;-68
2024/01/27 10:01:25;;;;;;;2.37;1.80;;;6.50;99.90;;;;;;5065674;28;20240;-68
2024/01/27 10:03:52;;;;;;;2.37;1.60;;;6.50;99.90;;;;;;5066801;28;20216;-68
2024/01/27 10:06:19;;;;;;;3.43;1.77;;;6.50;99.90;;;;;;5065042;28;20270;-69
2024/01/27 10:08:54;;;;;;;3.77;1.50;;;6.50;99.90;;;;;;5063934;28;20192;-68
2024/01/27 10:11:24;;;;;;;3.90;1.73;;;6.50;99.90;;;;;;5063859;28;20192;-68
2024/01/27 10:13:59;;;;;;;2.00;1.30;;;6.50;99.90;;;;;;5064513;28;20727;-68
2024/01/27 10:16:27;;;;;;;2.30;1.30;;;6.50;99.90;;;;;;5044086;28;20219;-68
2024/01/27 10:19:01;;;;;;;1.57;1.10;;;6.50;99.90;;;;;;5064518;28;20435;-68
2024/01/27 10:21:29;;;;;;;2.03;1.40;;;6.60;99.90;;;;;;5066775;28;20331;-68
2024/01/27 10:23:56;;;;;;;4.20;1.30;;;6.60;99.90;;;;;;5067230;28;20192;-68
2024/01/27 10:26:24;;;;;;;2.53;1.20;;;6.60;99.90;;;;;;5066809;28;20501;-68
2024/01/27 10:28:55;;;;;;;0.83;0.80;;;6.50;99.90;;;;;;5066618;28;20215;-68
2024/01/27 10:31:27;;;;;;;9.87;1.20;;;6.60;99.90;;;;;;5067434;28;20210;-68
2024/01/27 10:33:55;;;;;;;1.70;1.20;;;6.60;99.90;;;;;;5067746;28;20211;-68
2024/01/27 10:36:22;;;;;;;5.53;1.80;;;6.60;99.90;;;;;;5066308;28;20224;-68
2024/01/27 10:38:49;;;;;;;2.43;1.50;;;6.60;99.90;;;;;;5067766;28;20199;-68
2024/01/27 10:41:26;;;;;;;2.03;1.43;;;6.60;99.90;;;;;;5068076;28;20197;-68
2024/01/27 10:43:54;;;;;;;2.87;1.70;;;6.70;99.90;;;;;;5065350;28;20196;-68
2024/01/27 10:46:22;;;;;;;2.43;1.30;;;6.70;99.90;;;;;;5067990;28;20196;-67
2024/01/27 10:48:52;;;;;;;1.90;0.80;;;6.70;99.90;;;;;;5067438;28;20328;-67
2024/01/27 10:51:25;;;;;;;1.40;1.30;;;6.70;99.90;;;;;;5059088;28;20236;-68
2024/01/27 10:53:56;;;;;;;1.63;1.13;;;6.70;99.90;;;;;;5063834;28;20193;-68
2024/01/27 10:56:25;;;;;;;3.10;1.60;;;6.70;99.90;;;;;;5067520;28;20295;-68
2024/01/27 10:58:53;;;;;;;2.90;2.00;;;6.70;99.90;;;;;;5066675;28;20201;-68
2024/01/27 11:01:23;;;;;;;3.30;1.80;;;6.80;99.90;;;;;;5067114;28;20343;-68
2024/01/27 11:03:53;;;;;;;8.63;4.20;;;6.70;99.90;;;;;;5067133;28;20286;-68
2024/01/27 11:06:23;;;;;;;6.87;3.63;;;6.70;99.90;;;;;;5057865;28;20274;-67
2024/01/27 11:08:51;;;;;;;5.20;3.03;;;6.70;99.90;;;;;;5060861;28;20687;-67
2024/01/27 11:11:18;;;;;;;4.77;2.60;;;6.70;99.90;;;;;;5059801;28;20296;-68
2024/01/27 11:13:48;;;;;;;2.60;2.10;;;6.80;99.90;;;;;;5060547;28;20264;-68
2024/01/27 11:16:18;;;;;;;2.90;2.43;;;6.80;99.90;;;;;;5065292;28;20219;-68
2024/01/27 11:18:46;;;;;;;2.53;1.50;;;6.80;99.90;;;;;;5063636;28;20618;-69
2024/01/27 11:21:15;;;;;;;1.23;1.10;;;6.80;99.90;;;;;;5064011;28;20197;-69
2024/01/27 11:23:43;;;;;;;1.63;0.93;;;6.90;99.90;;;;;;5065970;28;20193;-69
2024/01/27 11:26:14;;;;;;;1.73;0.90;;;7.00;99.90;;;;;;5062559;28;20274;-69
2024/01/27 11:28:41;;;;;;;1.10;0.70;;;7.20;99.90;;;;;;5064766;28;20299;-69
2024/01/27 11:31:11;;;;;;;1.40;0.80;;;7.20;99.90;;;;;;5062717;28;20213;-69
2024/01/27 11:33:44;;;;;;;1.97;0.87;;;7.40;99.90;;;;;;5065739;28;20250;-69
2024/01/27 11:36:20;;;;;;;1.43;0.87;;;7.50;99.90;;;;;;5064225;28;20216;-69
2024/01/27 11:38:50;;;;;;;2.20;0.97;;;7.50;99.90;;;;;;5066229;28;20296;-69
2024/01/27 11:41:27;;;;;;;0.60;0.60;;;7.40;99.90;;;;;;5064853;28;20197;-70
2024/01/27 11:43:55;;;;;;;0.80;0.70;;;7.40;99.90;;;;;;5064083;28;20203;-69
2024/01/27 11:46:23;;;;;;;1.53;0.83;;;7.40;99.90;;;;;;5058413;28;20264;-69
2024/01/27 11:48:50;;;;;;;1.63;0.70;;;7.40;99.90;;;;;;5061422;28;20201;-69
2024/01/27 11:51:19;;;;;;;1.03;0.70;;;7.30;99.90;;;;;;5058739;28;20189;-69
2024/01/27 11:53:47;;;;;;;3.90;0.80;;;7.40;99.90;;;;;;5063121;28;20363;-70
2024/01/27 11:56:15;;;;;;;1.40;0.70;;;7.30;99.90;;;;;;5063046;28;20258;-70
2024/01/27 11:58:48;;;;;;;3.17;1.00;;;7.40;99.90;;;;;;5065646;28;20676;-70
2024/01/27 12:01:15;;;;;;;1.23;0.73;;;7.30;99.90;;;;;;5061660;28;20237;-70
2024/01/27 12:03:45;;;;;;;2.00;0.80;;;7.30;99.90;;;;;;5065139;28;20524;-70
2024/01/27 12:06:12;;;;;;;3.97;0.77;;;7.30;99.90;;;;;;5057716;28;20197;-70
2024/01/27 12:08:40;;;;;;;1.27;0.90;;;7.30;99.90;;;;;;5063162;28;20266;-70
2024/01/27 12:11:07;;;;;;;3.53;1.00;;;7.30;99.90;;;;;;5056802;28;20207;-70
2024/01/27 12:13:35;;;;;;;2.20;1.10;;;7.30;99.90;;;;;;5055337;28;21003;-70
2024/01/27 12:16:02;;;;;;;2.77;0.90;;;7.20;99.90;;;;;;5064697;28;20227;-70
2024/01/27 12:18:30;;;;;;;2.83;1.07;;;7.20;99.90;;;;;;5057346;28;20267;-69
2024/01/27 12:20:58;;;;;;;0.83;0.80;;;7.20;99.90;;;;;;5064731;28;20193;-69
2024/01/27 12:23:25;;;;;;;3.07;0.90;;;7.20;99.90;;;;;;5049644;28;20613;-68
2024/01/27 12:25:56;;;;;;;2.97;1.37;;;7.20;99.90;;;;;;5057850;28;20194;-67
2024/01/27 12:28:24;;;;;;;3.30;1.10;;;7.20;99.90;;;;;;5064755;28;20272;-68
2024/01/27 12:30:53;;;;;;;2.30;0.90;;;7.10;99.90;;;;;;5060405;28;20267;-68
2024/01/27 12:33:24;;;;;;;4.00;1.27;;;7.10;99.90;;;;;;5067041;28;20658;-68
2024/01/27 12:35:51;;;;;;;2.83;1.00;;;7.10;99.90;;;;;;5058611;28;20279;-68
2024/01/27 12:38:20;;;;;;;5.83;1.30;;;7.10;99.90;;;;;;5060154;28;20194;-68
2024/01/27 12:40:47;;;;;;;3.37;1.37;;;7.10;99.90;;;;;;5069732;28;20261;-67
2024/01/27 12:43:15;;;;;;;3.00;1.30;;;7.10;99.90;;;;;;5063447;28;20304;-68
2024/01/27 12:45:42;;;;;;;7.47;1.50;;;7.10;99.90;;;;;;5057771;28;20189;-67
2024/01/27 12:48:09;;;;;;;3.73;0.90;;;7.20;99.90;;;;;;5081662;28;20198;-67
2024/01/27 12:50:36;;;;;;;4.20;1.60;;;7.20;99.90;;;;;;5065393;28;20280;-68
2024/01/27 12:53:03;;;;;;;1.53;0.90;;;7.30;99.90;;;;;;5068418;28;20286;-68
2024/01/27 12:55:31;;;;;;;4.27;1.10;;;7.30;99.90;;;;;;5058830;28;20205;-68
2024/01/27 12:57:58;;;;;;;2.27;1.20;;;7.40;99.90;;;;;;5069050;28;20221;-68
2024/01/27 13:00:26;;;;;;;4.57;1.47;;;7.40;99.90;;;;;;5066692;28;20224;-67
2024/01/27 13:02:53;;;;;;;6.07;1.47;;;7.40;99.90;;;;;;5068235;28;20395;-68
2024/01/27 13:05:20;;;;;;;3.73;1.20;;;7.50;99.90;;;;;;5068503;28;20205;-68